Startpagina
METAR-TAF:

METAR-TAF

Vliegvelden :

Bydgoszcz, Polen

breedte: 53-05-48N, lengte: 017-58-40E, hoogte: 72 m

Actueel weer

Dit bericht is 39 minuten geleden gemaakt, om 10:30 UTC
Wind 6 kt uit variabele richting
Temperatuur 12°C
Vochtigheid 32%
Druk 1034 hPa
Zicht 10 km of meer
geen wolken onder 1500 m en geen cumulonimbus

METAR: EPBY 051030Z VRB06KT CAVOK 12/M04 Q1034

Tijdstip: 13:09 (11:09 UTC)

Verwachting

Dit bericht is 5 uur en het 39 minuten geleden gemaakt, om 05:30 UTC
Verwachting geldig van 05 om 06 UTC tot 06 om 06 UTC
Wind 2 kt uit variabele richting
Zicht 10 km of meer
geen wolken onder 1500 m en geen cumulonimbus
Wijzigt naar
van 05 om 08 UTC tot 05 om 10 UTC
Wind 6 kt uit het zuidoosten

TAF: EPBY 050530Z 0506/0606 VRB02KT CAVOK BECMG 0508/0510 13006KT

Waarnemingen en weersverwachtingen van meer dan 4000 vliegvelden (METAR en TAF).

De beschikbare stations zijn de gele en rode punten op de kaart.

Ga met uw muis naar het station om de naam te zien.

Klik dan om waarnemingen en weersverwachtingen te zien.

kaart wijzigen: klik op de groene knoppen met een zwart kruis om in te zoomen, op de groene knop met een streepje om uit te zoomen of op de groene pijlen voor aangrenzende kaarten.


METAR-TAF: